createdAt,value
2022-08-17T07:30:20.911Z,8.63
2022-08-17T07:32:53.491Z,9.70
2022-08-17T07:35:41.295Z,10.17
2022-08-17T07:38:24.857Z,11.43
2022-08-17T07:41:03.864Z,10.60
2022-08-17T07:43:35.598Z,12.00
2022-08-17T07:46:38.174Z,14.73
2022-08-17T07:49:34.719Z,13.70
2022-08-17T07:52:24.825Z,10.93
2022-08-17T07:54:56.158Z,11.07
2022-08-17T07:57:36.956Z,12.37
2022-08-17T08:00:12.802Z,13.27
2022-08-17T08:02:58.679Z,14.77
2022-08-17T08:05:49.243Z,14.13
2022-08-17T08:08:30.551Z,15.17
2022-08-17T08:11:02.025Z,15.10
2022-08-17T08:13:32.376Z,13.23
2022-08-17T08:16:25.481Z,11.90
2022-08-17T08:18:58.225Z,14.13
2022-08-17T08:21:36.877Z,13.10
2022-08-17T08:24:36.761Z,15.03
2022-08-17T08:27:16.780Z,14.47
2022-08-17T08:29:52.850Z,16.77
2022-08-17T08:32:31.150Z,16.60
2022-08-17T08:35:07.711Z,15.90
2022-08-17T08:38:07.418Z,17.03
2022-08-17T08:40:57.616Z,15.93
2022-08-17T08:43:36.866Z,18.53
2022-08-17T08:46:15.705Z,18.27
2022-08-17T08:49:12.046Z,18.40
2022-08-17T08:51:53.101Z,20.73
2022-08-17T08:54:34.776Z,14.70
2022-08-17T08:57:26.447Z,16.23
2022-08-17T09:00:08.328Z,14.70
2022-08-17T09:02:55.464Z,15.37
2022-08-17T09:05:34.945Z,14.47
2022-08-17T09:08:13.872Z,16.13
2022-08-17T09:11:03.622Z,14.80
2022-08-17T09:13:41.633Z,15.63
2022-08-17T09:16:16.548Z,22.00
2022-08-17T09:19:00.795Z,16.10
2022-08-17T09:21:48.241Z,19.10
2022-08-17T09:24:25.821Z,16.70
2022-08-17T09:27:00.085Z,20.20
2022-08-17T09:29:35.075Z,26.03
2022-08-17T09:32:10.768Z,22.33
2022-08-17T09:34:48.554Z,27.90
2022-08-17T09:37:24.113Z,19.43
2022-08-17T09:40:04.581Z,22.50
2022-08-17T09:42:43.753Z,18.03
2022-08-17T09:45:24.990Z,16.43
2022-08-17T09:47:57.823Z,19.83
2022-08-17T09:51:05.530Z,21.47
2022-08-17T09:53:22.918Z,22.50
2022-08-17T09:56:18.624Z,19.07
2022-08-17T09:59:03.591Z,27.10
2022-08-17T10:01:38.536Z,21.77
2022-08-17T10:04:26.037Z,21.83
2022-08-17T10:07:07.131Z,23.23
2022-08-17T10:09:49.853Z,23.90
2022-08-17T10:12:33.111Z,25.73
2022-08-17T10:15:21.940Z,32.10
2022-08-17T10:18:07.753Z,28.03
2022-08-17T10:20:43.137Z,28.33
2022-08-17T10:23:34.904Z,30.40
2022-08-17T10:26:15.480Z,23.23
2022-08-17T10:28:50.781Z,28.70
2022-08-17T10:31:34.582Z,26.03
2022-08-17T10:34:41.513Z,24.63
2022-08-17T10:37:28.585Z,22.70
2022-08-17T10:40:09.114Z,26.97
2022-08-17T10:42:46.899Z,26.23
2022-08-17T10:45:26.497Z,26.57
2022-08-17T10:48:06.301Z,25.17
2022-08-17T10:50:50.382Z,24.93
2022-08-17T10:53:55.698Z,28.10
2022-08-17T10:56:43.897Z,28.27
2022-08-17T10:59:50.440Z,28.30
2022-08-17T11:02:35.080Z,22.93
2022-08-17T11:05:20.838Z,26.13
2022-08-17T11:08:12.968Z,26.97
2022-08-17T11:19:33.106Z,28.73
2022-08-17T11:23:02.672Z,31.37
2022-08-17T11:30:07.170Z,28.23
2022-08-17T11:33:01.423Z,34.57
2022-08-17T11:35:54.306Z,29.33
2022-08-17T11:39:25.007Z,42.27
2022-08-17T11:42:40.782Z,29.37
2022-08-17T11:46:08.172Z,38.93
2022-08-17T11:49:01.660Z,41.03
2022-08-17T11:52:14.448Z,36.87
2022-08-17T11:55:33.883Z,32.77
2022-08-17T11:58:30.994Z,43.07
2022-08-17T12:01:16.114Z,41.83
2022-08-17T12:04:31.996Z,42.83
2022-08-17T12:07:47.554Z,37.67
2022-08-17T12:10:34.481Z,39.00
2022-08-17T12:17:40.637Z,41.37
2022-08-17T12:20:43.487Z,36.60
2022-08-17T12:26:40.786Z,40.43
2022-08-17T12:32:46.838Z,31.10
2022-08-17T12:44:33.800Z,42.87
2022-08-17T12:47:07.667Z,34.10
2022-08-17T12:50:28.795Z,43.47
2022-08-17T12:57:13.434Z,44.63
2022-08-17T13:00:00.962Z,47.13
2022-08-17T13:02:49.760Z,46.53
2022-08-17T13:05:29.680Z,50.97
2022-08-17T13:08:01.745Z,53.73
2022-08-17T13:18:39.080Z,50.20
2022-08-17T13:21:12.601Z,50.53
2022-08-17T13:33:43.306Z,45.77
2022-08-17T13:36:19.394Z,48.73
2022-08-17T13:39:08.128Z,44.57
2022-08-17T13:41:41.603Z,47.27
2022-08-17T13:52:58.762Z,51.33
2022-08-17T13:56:37.655Z,44.77
2022-08-17T14:00:35.637Z,48.07
2022-08-17T14:03:06.472Z,50.10
2022-08-17T14:05:38.015Z,49.00
2022-08-17T14:08:08.090Z,51.57
2022-08-17T14:10:36.825Z,51.67
2022-08-17T14:13:05.636Z,48.10
2022-08-17T14:15:56.124Z,46.03
2022-08-17T14:18:54.308Z,41.63
2022-08-17T14:21:11.287Z,50.37
2022-08-17T14:23:40.993Z,44.93
2022-08-17T14:26:11.958Z,50.00
2022-08-17T14:28:43.031Z,48.93
2022-08-17T14:31:23.119Z,44.93
2022-08-17T14:33:51.473Z,50.50
2022-08-17T14:36:19.931Z,49.00
2022-08-17T14:38:49.579Z,47.97
2022-08-17T14:41:22.051Z,44.20
2022-08-17T14:43:52.939Z,47.53
2022-08-17T14:46:21.490Z,41.00
2022-08-17T14:48:57.405Z,41.47
2022-08-17T14:51:30.356Z,44.97
2022-08-17T14:53:59.866Z,41.87
2022-08-17T14:56:28.303Z,44.47
2022-08-17T14:59:03.342Z,43.10
2022-08-17T15:01:31.774Z,33.37
2022-08-17T15:04:00.857Z,41.23
2022-08-17T15:06:29.186Z,43.97
2022-08-17T15:08:57.509Z,30.07
2022-08-17T15:11:27.182Z,43.27
2022-08-17T15:13:55.346Z,41.93
2022-08-17T15:16:23.755Z,38.97
2022-08-17T15:18:52.755Z,40.40
2022-08-17T15:22:13.541Z,34.80
2022-08-17T15:24:41.910Z,40.40
2022-08-17T15:28:21.017Z,38.63
2022-08-17T15:30:50.814Z,37.73
2022-08-17T15:42:04.701Z,32.63
2022-08-17T15:44:35.007Z,28.63
2022-08-17T15:47:03.531Z,34.00
2022-08-17T15:49:31.604Z,32.20
2022-08-17T15:52:00.005Z,40.27
2022-08-17T15:54:34.525Z,35.47
2022-08-17T15:57:04.284Z,38.13
2022-08-17T15:59:35.834Z,39.53
2022-08-17T16:03:01.640Z,37.37
2022-08-17T16:04:52.740Z,43.40
2022-08-17T16:07:26.376Z,35.67
2022-08-17T16:09:55.212Z,45.77
2022-08-17T16:12:23.625Z,46.00
2022-08-17T16:14:53.379Z,45.30
2022-08-17T16:17:40.042Z,40.87
2022-08-17T16:20:09.991Z,45.33
2022-08-17T16:22:50.874Z,46.37
2022-08-17T16:25:23.075Z,41.50
2022-08-17T16:28:11.468Z,45.90
2022-08-17T16:30:42.512Z,44.97
2022-08-17T16:33:12.763Z,43.57
2022-08-17T16:35:42.190Z,41.10
2022-08-17T16:38:12.455Z,42.83
2022-08-17T16:40:41.833Z,33.93
2022-08-17T16:43:12.077Z,38.87
2022-08-17T16:45:42.626Z,41.93
2022-08-17T16:48:11.945Z,36.33
2022-08-17T16:50:40.423Z,35.90
2022-08-17T16:53:17.936Z,40.40
2022-08-17T16:55:47.379Z,38.03
2022-08-17T16:58:16.762Z,34.87
2022-08-17T17:00:48.895Z,35.67
2022-08-17T17:03:20.637Z,36.30
2022-08-17T17:06:00.329Z,39.67
2022-08-17T17:08:42.114Z,34.27
2022-08-17T17:11:15.870Z,31.67
2022-08-17T17:13:48.107Z,35.33
2022-08-17T17:16:24.065Z,32.90
2022-08-17T17:19:04.861Z,37.80
2022-08-17T17:21:42.956Z,35.63
2022-08-17T17:24:16.055Z,39.80
2022-08-17T17:26:58.568Z,30.43
2022-08-17T17:29:47.390Z,36.73
2022-08-17T17:32:22.660Z,36.80
2022-08-17T17:34:55.234Z,39.03
2022-08-17T17:37:28.639Z,39.00
2022-08-17T17:40:01.161Z,40.27
2022-08-17T17:42:33.039Z,35.27
2022-08-17T17:45:08.124Z,37.83
2022-08-17T17:47:38.173Z,37.37
2022-08-17T17:50:11.564Z,30.77
2022-08-17T17:52:48.422Z,33.07
2022-08-17T17:55:27.343Z,31.30
2022-08-17T17:58:06.564Z,30.47
2022-08-17T18:00:41.499Z,29.20
2022-08-17T18:03:25.715Z,31.20
2022-08-17T18:06:07.093Z,26.87
2022-08-17T18:08:50.771Z,34.10
2022-08-17T18:11:35.222Z,28.93
2022-08-17T18:14:30.581Z,27.13
2022-08-17T18:17:01.962Z,24.73
2022-08-17T18:19:33.047Z,27.37
2022-08-17T18:22:08.589Z,26.43
2022-08-17T18:24:44.942Z,27.37
2022-08-17T18:27:24.594Z,24.00
2022-08-17T18:29:54.674Z,21.77
2022-08-17T18:32:35.785Z,29.73
2022-08-17T18:35:35.247Z,28.43
2022-08-17T18:38:23.222Z,26.37
2022-08-17T18:41:01.371Z,29.30
2022-08-17T18:43:44.447Z,28.40
2022-08-17T18:46:29.632Z,22.67
2022-08-17T18:49:03.171Z,25.60
2022-08-17T18:51:40.366Z,28.00
2022-08-17T18:54:20.889Z,27.20
2022-08-17T18:56:54.973Z,27.87
2022-08-17T18:59:34.634Z,27.57
2022-08-17T19:02:32.543Z,26.43
2022-08-17T19:05:13.334Z,22.33
2022-08-17T19:07:45.520Z,23.40
2022-08-17T19:10:25.410Z,23.33
2022-08-17T19:13:00.423Z,25.43
2022-08-17T19:15:35.938Z,25.63
2022-08-17T19:18:15.128Z,26.37
2022-08-17T19:20:48.210Z,29.20
2022-08-17T19:23:23.952Z,22.20
2022-08-17T19:25:54.852Z,26.33
2022-08-17T19:28:30.447Z,24.50
2022-08-17T19:31:03.558Z,22.87
